< Typhoon 198202 1982 Season Typhoon 198204 >
Typhoon 198203 (ODESSA)
General InformationTrack Information on Google MapsDetailed Wind InformationList of All Images || Disaster Info.ResourceGoogle EarthGE AnimationAtom FeedGeoJSON
Detalied Best Track (Time Zone = UTC)
Year Month Day Hour Lat. Long. Pressure (hPa) Wind (kt) Class Image Chart
1982 3 29 06 6.5 156.1 1000 0 2 Image Chart
1982 3 29 12 6.9 156.6 994 35 3 Image Chart
1982 3 29 18 7.4 157.2 994 35 3 Image Chart
1982 3 30 00 7.8 157.8 992 35 3 Image Chart
1982 3 30 06 8.2 159.0 990 35 3 Image Chart
1982 3 30 12 8.6 160.1 985 50 4 Image Chart
1982 3 30 18 8.7 161.1 985 50 4 Image Chart
1982 3 31 00 8.8 162.1 990 50 4 Image Chart
1982 3 31 06 9.0 163.1 990 50 4 Image Chart
1982 3 31 12 9.4 163.6 990 55 4 Image Chart
1982 3 31 18 9.9 163.9 985 55 4 Image Chart
1982 4 1 00 10.3 163.5 985 55 4 Image Chart
1982 4 1 06 10.6 162.1 985 55 4 Image Chart
1982 4 1 12 10.7 162.0 985 50 4 Image Chart
1982 4 1 18 10.7 161.9 985 50 4 Image Chart
1982 4 2 00 11.0 161.6 985 55 4 Image Chart
1982 4 2 06 11.5 160.7 980 55 4 Image Chart
1982 4 2 12 12.1 160.2 970 65 5 Image Chart
1982 4 2 18 12.7 160.1 965 65 5 Image Chart
1982 4 3 00 13.2 159.9 965 75 5 Image Chart
1982 4 3 06 13.3 159.5 975 70 5 Image Chart
1982 4 3 12 13.2 158.8 992 55 4 Image Chart
1982 4 3 18 13.1 157.5 1000 45 3 Image Chart
1982 4 4 00 13.0 155.8 1006 0 2 Image Chart
1982 4 4 06 13.0 154.1 1006 0 2 Image Chart
Japan Meteorological Agency Best Track Data | Correction Date : 1992-10-21
< Typhoon 198202 1982 Season Typhoon 198204 >

Help